sensor_id;sensor_type;location;lat;lon;timestamp;pressure;altitude;pressure_sealevel;temperature;humidity
73941;BME280;62294;48.554;10.202;2023-03-23T00:00:00;93891.66;;;7.28;100.00
73941;BME280;62294;48.554;10.202;2023-03-23T00:02:30;93892.56;;;7.39;100.00
73941;BME280;62294;48.554;10.202;2023-03-23T00:05:02;93884.66;;;7.44;100.00
73941;BME280;62294;48.554;10.202;2023-03-23T00:07:28;93889.97;;;7.49;100.00
73941;BME280;62294;48.554;10.202;2023-03-23T00:09:55;93893.69;;;7.48;100.00
73941;BME280;62294;48.554;10.202;2023-03-23T00:12:25;93902.81;;;7.35;100.00
73941;BME280;62294;48.554;10.202;2023-03-23T00:14:59;93905.75;;;7.39;100.00
73941;BME280;62294;48.554;10.202;2023-03-23T00:17:27;93902.84;;;7.40;100.00
73941;BME280;62294;48.554;10.202;2023-03-23T00:19:52;93914.72;;;7.38;100.00
73941;BME280;62294;48.554;10.202;2023-03-23T00:22:18;93911.44;;;7.26;100.00
73941;BME280;62294;48.554;10.202;2023-03-23T00:24:48;93910.94;;;7.29;100.00
73941;BME280;62294;48.554;10.202;2023-03-23T00:27:15;93887.97;;;7.61;100.00
73941;BME280;62294;48.554;10.202;2023-03-23T00:29:41;93882.38;;;7.94;100.00
73941;BME280;62294;48.554;10.202;2023-03-23T00:32:08;93882.25;;;8.16;100.00
73941;BME280;62294;48.554;10.202;2023-03-23T00:34:39;93874.97;;;8.38;100.00
73941;BME280;62294;48.554;10.202;2023-03-23T00:37:05;93900.69;;;8.47;100.00
73941;BME280;62294;48.554;10.202;2023-03-23T00:39:31;93929.56;;;8.44;100.00
73941;BME280;62294;48.554;10.202;2023-03-23T00:41:56;93949.13;;;8.43;100.00
73941;BME280;62294;48.554;10.202;2023-03-23T00:44:31;93955.78;;;8.50;100.00
73941;BME280;62294;48.554;10.202;2023-03-23T00:46:57;93961.91;;;8.56;100.00
73941;BME280;62294;48.554;10.202;2023-03-23T00:49:25;93966.47;;;8.71;100.00
73941;BME280;62294;48.554;10.202;2023-03-23T00:51:55;93968.13;;;8.82;100.00
73941;BME280;62294;48.554;10.202;2023-03-23T00:54:23;93992.03;;;8.92;100.00
73941;BME280;62294;48.554;10.202;2023-03-23T00:56:50;93997.34;;;9.02;100.00
73941;BME280;62294;48.554;10.202;2023-03-23T00:59:15;94016.84;;;8.81;100.00
73941;BME280;62294;48.554;10.202;2023-03-23T01:01:41;94013.72;;;8.89;100.00
73941;BME280;62294;48.554;10.202;2023-03-23T01:04:07;94027.53;;;8.96;100.00
73941;BME280;62294;48.554;10.202;2023-03-23T01:06:35;94032.75;;;8.86;100.00
73941;BME280;62294;48.554;10.202;2023-03-23T01:09:05;94045.94;;;8.71;100.00
73941;BME280;62294;48.554;10.202;2023-03-23T01:11:31;94060.66;;;8.56;100.00
73941;BME280;62294;48.554;10.202;2023-03-23T01:13:57;94064.25;;;8.40;100.00
73941;BME280;62294;48.554;10.202;2023-03-23T01:16:23;94051.50;;;8.37;100.00
73941;BME280;62294;48.554;10.202;2023-03-23T01:18:49;94044.69;;;8.41;100.00
73941;BME280;62294;48.554;10.202;2023-03-23T01:21:17;94051.50;;;8.37;100.00
73941;BME280;62294;48.554;10.202;2023-03-23T01:23:44;94042.75;;;8.32;100.00
73941;BME280;62294;48.554;10.202;2023-03-23T01:26:12;94021.34;;;8.38;100.00
73941;BME280;62294;48.554;10.202;2023-03-23T01:28:39;94003.94;;;8.47;100.00
73941;BME280;62294;48.554;10.202;2023-03-23T01:31:07;93999.22;;;8.54;100.00
73941;BME280;62294;48.554;10.202;2023-03-23T01:33:33;94007.09;;;8.39;100.00
73941;BME280;62294;48.554;10.202;2023-03-23T01:36:08;94016.78;;;8.29;100.00
73941;BME280;62294;48.554;10.202;2023-03-23T01:38:34;94011.81;;;8.32;100.00
73941;BME280;62294;48.554;10.202;2023-03-23T01:41:01;94012.22;;;8.24;100.00
73941;BME280;62294;48.554;10.202;2023-03-23T01:43:27;94014.44;;;8.32;100.00
73941;BME280;62294;48.554;10.202;2023-03-23T01:45:53;94019.75;;;8.32;100.00
73941;BME280;62294;48.554;10.202;2023-03-23T01:48:25;93995.38;;;8.35;100.00
73941;BME280;62294;48.554;10.202;2023-03-23T01:51:11;93995.47;;;8.45;100.00
73941;BME280;62294;48.554;10.202;2023-03-23T01:53:48;94010.50;;;8.40;100.00
73941;BME280;62294;48.554;10.202;2023-03-23T01:56:16;94022.66;;;8.36;100.00
73941;BME280;62294;48.554;10.202;2023-03-23T01:58:45;94027.69;;;8.37;100.00
73941;BME280;62294;48.554;10.202;2023-03-23T02:01:13;94032.53;;;8.45;100.00
73941;BME280;62294;48.554;10.202;2023-03-23T02:03:42;94027.31;;;8.61;100.00
73941;BME280;62294;48.554;10.202;2023-03-23T02:06:10;94026.97;;;8.47;100.00
73941;BME280;62294;48.554;10.202;2023-03-23T02:08:36;94043.50;;;8.27;100.00
73941;BME280;62294;48.554;10.202;2023-03-23T02:11:12;94027.69;;;8.32;100.00
73941;BME280;62294;48.554;10.202;2023-03-23T02:13:39;94021.34;;;8.38;100.00
73941;BME280;62294;48.554;10.202;2023-03-23T02:26:50;94019.25;;;8.40;100.00
73941;BME280;62294;48.554;10.202;2023-03-23T02:34:55;94028.19;;;8.29;100.00
73941;BME280;62294;48.554;10.202;2023-03-23T02:37:36;94031.78;;;8.18;100.00
73941;BME280;62294;48.554;10.202;2023-03-23T02:40:13;94025.41;;;8.19;100.00
73941;BME280;62294;48.554;10.202;2023-03-23T02:42:44;94027.13;;;8.30;100.00
73941;BME280;62294;48.554;10.202;2023-03-23T02:45:11;94018.41;;;8.30;100.00
73941;BME280;62294;48.554;10.202;2023-03-23T02:47:39;94014.44;;;8.32;100.00
73941;BME280;62294;48.554;10.202;2023-03-23T02:50:10;94014.41;;;8.27;100.00
73941;BME280;62294;48.554;10.202;2023-03-23T02:52:39;94015.69;;;8.25;100.00
73941;BME280;62294;48.554;10.202;2023-03-23T02:55:07;94030.75;;;8.24;100.00
73941;BME280;62294;48.554;10.202;2023-03-23T02:57:33;94025.19;;;8.21;100.00
73941;BME280;62294;48.554;10.202;2023-03-23T03:00:00;94027.78;;;8.16;100.00
73941;BME280;62294;48.554;10.202;2023-03-23T03:02:35;94030.69;;;8.14;100.00
73941;BME280;62294;48.554;10.202;2023-03-23T03:18:52;94016.91;;;8.12;100.00
73941;BME280;62294;48.554;10.202;2023-03-23T03:21:23;94020.34;;;8.13;100.00
73941;BME280;62294;48.554;10.202;2023-03-23T03:23:54;94018.03;;;8.21;100.00
73941;BME280;62294;48.554;10.202;2023-03-23T03:26:22;94013.19;;;8.13;100.00
73941;BME280;62294;48.554;10.202;2023-03-23T03:28:51;94010.50;;;8.08;100.00
73941;BME280;62294;48.554;10.202;2023-03-23T03:31:20;94002.03;;;8.06;100.00
73941;BME280;62294;48.554;10.202;2023-03-23T03:33:47;93990.88;;;7.99;100.00
73941;BME280;62294;48.554;10.202;2023-03-23T03:36:21;93972.59;;;7.98;100.00
73941;BME280;62294;48.554;10.202;2023-03-23T03:38:50;93950.41;;;8.04;100.00
73941;BME280;62294;48.554;10.202;2023-03-23T03:41:16;93957.09;;;8.11;100.00
73941;BME280;62294;48.554;10.202;2023-03-23T03:43:42;93956.03;;;8.07;100.00
73941;BME280;62294;48.554;10.202;2023-03-23T03:46:08;93951.72;;;8.01;100.00
73941;BME280;62294;48.554;10.202;2023-03-23T03:48:33;93947.94;;;7.92;100.00
73941;BME280;62294;48.554;10.202;2023-03-23T03:50:59;93946.34;;;7.86;100.00
73941;BME280;62294;48.554;10.202;2023-03-23T03:53:26;93948.47;;;7.89;100.00
73941;BME280;62294;48.554;10.202;2023-03-23T03:55:52;93944.81;;;7.95;100.00
73941;BME280;62294;48.554;10.202;2023-03-23T03:58:22;93948.75;;;7.93;100.00
73941;BME280;62294;48.554;10.202;2023-03-23T04:00:48;93942.38;;;7.88;100.00
73941;BME280;62294;48.554;10.202;2023-03-23T04:03:14;93939.69;;;7.83;100.00
73941;BME280;62294;48.554;10.202;2023-03-23T04:05:40;93919.84;;;7.81;100.00
73941;BME280;62294;48.554;10.202;2023-03-23T04:08:06;93921.69;;;7.80;100.00
73941;BME280;62294;48.554;10.202;2023-03-23T04:10:32;93910.34;;;7.85;100.00
73941;BME280;62294;48.554;10.202;2023-03-23T04:12:59;93896.34;;;7.89;100.00
73941;BME280;62294;48.554;10.202;2023-03-23T04:15:25;93900.03;;;7.83;100.00
73941;BME280;62294;48.554;10.202;2023-03-23T04:17:51;93911.16;;;7.85;100.00
73941;BME280;62294;48.554;10.202;2023-03-23T04:20:17;93898.72;;;7.86;100.00
73941;BME280;62294;48.554;10.202;2023-03-23T04:22:46;93894.47;;;7.85;100.00
73941;BME280;62294;48.554;10.202;2023-03-23T04:25:16;93904.50;;;7.78;100.00
73941;BME280;62294;48.554;10.202;2023-03-23T04:27:43;93893.34;;;7.76;100.00
73941;BME280;62294;48.554;10.202;2023-03-23T04:30:12;93892.59;;;7.80;100.00
73941;BME280;62294;48.554;10.202;2023-03-23T04:32:39;93900.69;;;7.69;100.00
73941;BME280;62294;48.554;10.202;2023-03-23T04:35:13;93892.22;;;7.67;100.00
73941;BME280;62294;48.554;10.202;2023-03-23T04:37:39;93886.44;;;7.70;100.00
73941;BME280;62294;48.554;10.202;2023-03-23T04:40:07;93880.13;;;7.76;100.00
73941;BME280;62294;48.554;10.202;2023-03-23T04:42:37;93884.97;;;7.84;100.00
73941;BME280;62294;48.554;10.202;2023-03-23T04:45:05;93883.41;;;7.88;100.00
73941;BME280;62294;48.554;10.202;2023-03-23T04:47:36;93873.38;;;7.90;100.00
73941;BME280;62294;48.554;10.202;2023-03-23T04:50:14;93864.94;;;7.93;100.00
73941;BME280;62294;48.554;10.202;2023-03-23T04:52:40;93868.03;;;7.85;100.00
73941;BME280;62294;48.554;10.202;2023-03-23T04:55:12;93874.56;;;7.72;100.00
73941;BME280;62294;48.554;10.202;2023-03-23T04:57:38;93867.19;;;7.74;100.00
73941;BME280;62294;48.554;10.202;2023-03-23T05:00:04;93870.94;;;7.83;100.00
73941;BME280;62294;48.554;10.202;2023-03-23T05:02:38;93869.56;;;7.76;100.00
73941;BME280;62294;48.554;10.202;2023-03-23T05:05:07;93861.34;;;7.72;100.00
73941;BME280;62294;48.554;10.202;2023-03-23T05:07:33;93861.09;;;7.74;100.00
73941;BME280;62294;48.554;10.202;2023-03-23T05:09:59;93855.84;;;7.79;100.00
73941;BME280;62294;48.554;10.202;2023-03-23T05:12:25;93853.72;;;7.81;100.00
73941;BME280;62294;48.554;10.202;2023-03-23T05:14:50;93840.28;;;7.87;100.00
73941;BME280;62294;48.554;10.202;2023-03-23T05:17:16;93842.72;;;7.99;100.00
73941;BME280;62294;48.554;10.202;2023-03-23T05:19:43;93838.31;;;8.10;100.00
73941;BME280;62294;48.554;10.202;2023-03-23T05:22:13;93839.66;;;8.12;100.00
73941;BME280;62294;48.554;10.202;2023-03-23T05:24:39;93848.13;;;8.19;100.00
73941;BME280;62294;48.554;10.202;2023-03-23T05:27:05;93852.16;;;8.27;100.00
73941;BME280;62294;48.554;10.202;2023-03-23T05:29:33;93852.47;;;8.35;100.00
73941;BME280;62294;48.554;10.202;2023-03-23T05:32:02;93860.66;;;8.34;100.00
73941;BME280;62294;48.554;10.202;2023-03-23T05:34:29;93873.41;;;8.37;100.00
73941;BME280;62294;48.554;10.202;2023-03-23T05:36:58;93879.47;;;8.32;100.00
73941;BME280;62294;48.554;10.202;2023-03-23T05:39:23;93878.44;;;8.38;100.00
73941;BME280;62294;48.554;10.202;2023-03-23T05:41:50;93879.56;;;8.52;100.00
73941;BME280;62294;48.554;10.202;2023-03-23T05:44:15;93880.09;;;8.54;100.00
73941;BME280;62294;48.554;10.202;2023-03-23T05:46:41;93877.78;;;8.73;100.00
73941;BME280;62294;48.554;10.202;2023-03-23T05:49:08;93874.63;;;8.81;100.00
73941;BME280;62294;48.554;10.202;2023-03-23T05:51:34;93890.28;;;8.93;100.00
73941;BME280;62294;48.554;10.202;2023-03-23T05:54:00;93900.38;;;9.01;100.00
73941;BME280;62294;48.554;10.202;2023-03-23T05:56:25;93901.97;;;9.07;100.00
73941;BME280;62294;48.554;10.202;2023-03-23T05:58:51;93907.53;;;9.10;100.00
73941;BME280;62294;48.554;10.202;2023-03-23T06:01:17;93927.41;;;9.13;100.00
73941;BME280;62294;48.554;10.202;2023-03-23T06:03:43;93937.47;;;9.06;100.00
73941;BME280;62294;48.554;10.202;2023-03-23T06:06:12;93952.31;;;9.02;100.00
73941;BME280;62294;48.554;10.202;2023-03-23T06:08:38;93959.75;;;9.05;100.00
73941;BME280;62294;48.554;10.202;2023-03-23T06:11:05;93958.13;;;9.04;100.00
73941;BME280;62294;48.554;10.202;2023-03-23T06:13:31;93969.00;;;9.02;100.00
73941;BME280;62294;48.554;10.202;2023-03-23T06:15:57;93951.28;;;9.08;100.00
73941;BME280;62294;48.554;10.202;2023-03-23T06:18:23;93960.53;;;9.10;100.00
73941;BME280;62294;48.554;10.202;2023-03-23T06:20:50;93958.19;;;9.19;100.00
73941;BME280;62294;48.554;10.202;2023-03-23T06:23:16;93950.78;;;9.31;100.00
73941;BME280;62294;48.554;10.202;2023-03-23T06:25:42;93942.34;;;9.49;100.00
73941;BME280;62294;48.554;10.202;2023-03-23T06:28:07;93950.59;;;9.58;100.00
73941;BME280;62294;48.554;10.202;2023-03-23T06:30:34;93942.38;;;9.69;100.00
73941;BME280;62294;48.554;10.202;2023-03-23T06:33:00;93958.28;;;9.59;100.00
73941;BME280;62294;48.554;10.202;2023-03-23T06:35:27;93971.53;;;9.54;100.00
73941;BME280;62294;48.554;10.202;2023-03-23T06:37:52;93981.59;;;9.47;100.00
73941;BME280;62294;48.554;10.202;2023-03-23T06:40:19;93980.81;;;9.47;100.00
73941;BME280;62294;48.554;10.202;2023-03-23T06:42:46;94000.66;;;9.39;100.00
73941;BME280;62294;48.554;10.202;2023-03-23T06:45:11;93992.69;;;9.34;100.00
73941;BME280;62294;48.554;10.202;2023-03-23T06:47:37;93998.53;;;9.36;100.00
73941;BME280;62294;48.554;10.202;2023-03-23T06:50:04;93991.63;;;9.40;100.00
73941;BME280;62294;48.554;10.202;2023-03-23T06:52:29;93991.94;;;9.54;100.00
73941;BME280;62294;48.554;10.202;2023-03-23T06:54:56;93982.97;;;9.75;100.00
73941;BME280;62294;48.554;10.202;2023-03-23T06:57:21;93980.59;;;9.88;100.00
73941;BME280;62294;48.554;10.202;2023-03-23T06:59:47;93973.97;;;9.96;100.00
73941;BME280;62294;48.554;10.202;2023-03-23T07:02:13;93980.09;;;10.12;100.00
73941;BME280;62294;48.554;10.202;2023-03-23T07:04:39;93984.34;;;10.18;100.00
73941;BME280;62294;48.554;10.202;2023-03-23T07:07:07;93998.66;;;10.32;100.00
73941;BME280;62294;48.554;10.202;2023-03-23T07:09:34;94021.25;;;10.44;100.00
73941;BME280;62294;48.554;10.202;2023-03-23T07:11:59;94029.22;;;10.44;100.00
73941;BME280;62294;48.554;10.202;2023-03-23T07:14:24;94032.91;;;10.53;100.00
73941;BME280;62294;48.554;10.202;2023-03-23T07:16:51;94042.19;;;10.66;100.00
73941;BME280;62294;48.554;10.202;2023-03-23T07:19:16;94066.63;;;10.68;100.00
73941;BME280;62294;48.554;10.202;2023-03-23T07:21:41;94072.50;;;10.65;100.00
73941;BME280;62294;48.554;10.202;2023-03-23T07:24:13;94067.44;;;10.68;100.00
73941;BME280;62294;48.554;10.202;2023-03-23T07:26:42;94069.56;;;10.77;100.00
73941;BME280;62294;48.554;10.202;2023-03-23T07:29:08;94070.09;;;10.84;100.00
73941;BME280;62294;48.554;10.202;2023-03-23T07:31:34;94066.63;;;10.88;100.00
73941;BME280;62294;48.554;10.202;2023-03-23T07:34:00;94061.78;;;11.05;100.00
73941;BME280;62294;48.554;10.202;2023-03-23T07:36:27;94066.06;;;10.96;100.00
73941;BME280;62294;48.554;10.202;2023-03-23T07:38:52;94053.28;;;11.13;100.00
73941;BME280;62294;48.554;10.202;2023-03-23T07:41:18;94069.72;;;11.20;100.00
73941;BME280;62294;48.554;10.202;2023-03-23T07:43:45;94096.34;;;11.10;100.00
73941;BME280;62294;48.554;10.202;2023-03-23T07:46:11;94088.03;;;11.32;100.00
73941;BME280;62294;48.554;10.202;2023-03-23T07:48:37;94097.84;;;11.41;100.00
73941;BME280;62294;48.554;10.202;2023-03-23T07:51:04;94105.31;;;11.39;100.00
73941;BME280;62294;48.554;10.202;2023-03-23T07:53:30;94108.53;;;11.31;100.00
73941;BME280;62294;48.554;10.202;2023-03-23T07:55:55;94120.78;;;11.22;100.00
73941;BME280;62294;48.554;10.202;2023-03-23T07:58:21;94127.69;;;11.28;100.00
73941;BME280;62294;48.554;10.202;2023-03-23T08:00:47;94126.34;;;11.26;100.00
73941;BME280;62294;48.554;10.202;2023-03-23T08:03:14;94136.19;;;11.35;100.00
73941;BME280;62294;48.554;10.202;2023-03-23T08:05:40;94158.25;;;11.26;100.00
73941;BME280;62294;48.554;10.202;2023-03-23T08:08:08;94161.72;;;11.21;100.00
73941;BME280;62294;48.554;10.202;2023-03-23T08:10:34;94163.84;;;11.19;100.00
73941;BME280;62294;48.554;10.202;2023-03-23T08:13:01;94163.31;;;11.27;100.00
73941;BME280;62294;48.554;10.202;2023-03-23T08:15:27;94169.16;;;11.29;100.00
73941;BME280;62294;48.554;10.202;2023-03-23T08:17:54;94165.44;;;11.35;100.00
73941;BME280;62294;48.554;10.202;2023-03-23T08:20:20;94150.50;;;11.45;100.00
73941;BME280;62294;48.554;10.202;2023-03-23T08:22:53;94144.38;;;11.54;100.00
73941;BME280;62294;48.554;10.202;2023-03-23T08:25:21;94132.13;;;11.53;100.00
73941;BME280;62294;48.554;10.202;2023-03-23T08:27:47;94132.41;;;11.47;100.00
73941;BME280;62294;48.554;10.202;2023-03-23T08:30:16;94129.25;;;11.39;100.00
73941;BME280;62294;48.554;10.202;2023-03-23T08:32:42;94123.13;;;11.34;100.00
73941;BME280;62294;48.554;10.202;2023-03-23T08:35:09;94117.31;;;11.27;100.00
73941;BME280;62294;48.554;10.202;2023-03-23T08:37:36;94117.03;;;11.33;100.00
73941;BME280;62294;48.554;10.202;2023-03-23T08:40:03;94120.97;;;11.41;100.00
73941;BME280;62294;48.554;10.202;2023-03-23T08:42:39;94130.56;;;11.42;100.00
73941;BME280;62294;48.554;10.202;2023-03-23T08:45:06;94133.16;;;11.57;100.00
73941;BME280;62294;48.554;10.202;2023-03-23T08:47:33;94153.41;;;11.63;100.00
73941;BME280;62294;48.554;10.202;2023-03-23T08:49:58;94158.69;;;11.73;100.00
73941;BME280;62294;48.554;10.202;2023-03-23T08:52:24;94158.66;;;11.83;100.00
73941;BME280;62294;48.554;10.202;2023-03-23T08:54:50;94162.66;;;11.91;100.00
73941;BME280;62294;48.554;10.202;2023-03-23T08:57:15;94156.75;;;11.99;100.00
73941;BME280;62294;48.554;10.202;2023-03-23T08:59:41;94165.25;;;11.96;100.00
73941;BME280;62294;48.554;10.202;2023-03-23T09:02:10;94174.78;;;12.07;100.00
73941;BME280;62294;48.554;10.202;2023-03-23T09:04:38;94181.13;;;12.21;100.00
73941;BME280;62294;48.554;10.202;2023-03-23T09:07:05;94187.97;;;12.37;100.00
73941;BME280;62294;48.554;10.202;2023-03-23T09:09:31;94208.97;;;12.44;100.00
73941;BME280;62294;48.554;10.202;2023-03-23T09:11:57;94233.19;;;12.52;100.00
73941;BME280;62294;48.554;10.202;2023-03-23T09:14:23;94254.00;;;12.45;100.00
73941;BME280;62294;48.554;10.202;2023-03-23T09:16:48;94253.50;;;12.38;100.00
73941;BME280;62294;48.554;10.202;2023-03-23T09:19:13;94268.63;;;12.53;100.00
73941;BME280;62294;48.554;10.202;2023-03-23T09:21:39;94284.38;;;12.49;100.00
73941;BME280;62294;48.554;10.202;2023-03-23T09:24:05;94272.03;;;12.68;100.00
73941;BME280;62294;48.554;10.202;2023-03-23T09:26:31;94283.25;;;12.60;100.00
73941;BME280;62294;48.554;10.202;2023-03-23T09:28:57;94293.88;;;12.70;100.00
73941;BME280;62294;48.554;10.202;2023-03-23T09:31:23;94303.41;;;12.76;100.00
73941;BME280;62294;48.554;10.202;2023-03-23T09:33:51;94303.28;;;13.02;100.00
73941;BME280;62294;48.554;10.202;2023-03-23T09:36:18;94323.28;;;13.09;100.00
73941;BME280;62294;48.554;10.202;2023-03-23T09:38:46;94334.97;;;13.13;100.00
73941;BME280;62294;48.554;10.202;2023-03-23T09:41:36;94330.47;;;13.14;100.00
73941;BME280;62294;48.554;10.202;2023-03-23T09:44:10;94345.38;;;13.15;100.00
73941;BME280;62294;48.554;10.202;2023-03-23T09:49:53;94352.22;;;13.31;100.00
73941;BME280;62294;48.554;10.202;2023-03-23T09:52:20;94351.69;;;13.29;100.00
73941;BME280;62294;48.554;10.202;2023-03-23T09:54:48;94373.88;;;13.19;100.00
73941;BME280;62294;48.554;10.202;2023-03-23T09:57:26;94398.72;;;13.15;100.00
73941;BME280;62294;48.554;10.202;2023-03-23T10:00:00;94383.53;;;13.10;100.00
73941;BME280;62294;48.554;10.202;2023-03-23T10:05:29;94387.00;;;13.16;100.00
73941;BME280;62294;48.554;10.202;2023-03-23T10:07:56;94402.91;;;13.26;100.00
73941;BME280;62294;48.554;10.202;2023-03-23T10:10:29;94403.75;;;13.21;100.00
73941;BME280;62294;48.554;10.202;2023-03-23T10:13:06;94394.06;;;13.35;100.00
73941;BME280;62294;48.554;10.202;2023-03-23T10:15:36;94385.72;;;13.47;100.00
73941;BME280;62294;48.554;10.202;2023-03-23T10:18:17;94374.91;;;13.67;100.00
73941;BME280;62294;48.554;10.202;2023-03-23T10:20:55;94369.03;;;13.70;100.00
73941;BME280;62294;48.554;10.202;2023-03-23T10:29:18;94397.53;;;14.42;100.00
73941;BME280;62294;48.554;10.202;2023-03-23T10:31:59;94433.19;;;14.28;100.00
73941;BME280;62294;48.554;10.202;2023-03-23T10:34:35;94444.84;;;14.70;100.00
73941;BME280;62294;48.554;10.202;2023-03-23T10:37:33;94466.66;;;15.06;100.00
73941;BME280;62294;48.554;10.202;2023-03-23T10:40:03;94488.06;;;15.06;100.00
73941;BME280;62294;48.554;10.202;2023-03-23T10:42:36;94449.94;;;15.19;100.00
73941;BME280;62294;48.554;10.202;2023-03-23T10:45:30;94451.09;;;15.55;100.00
73941;BME280;62294;48.554;10.202;2023-03-23T10:48:16;94485.22;;;16.06;100.00
73941;BME280;62294;48.554;10.202;2023-03-23T10:50:44;94525.25;;;15.79;100.00
73941;BME280;62294;48.554;10.202;2023-03-23T10:53:18;94542.53;;;15.86;100.00
73941;BME280;62294;48.554;10.202;2023-03-23T10:55:44;94573.91;;;15.86;100.00
73941;BME280;62294;48.554;10.202;2023-03-23T10:58:22;94655.56;;;16.36;100.00
73941;BME280;62294;48.554;10.202;2023-03-23T11:00:49;94712.16;;;16.10;100.00
73941;BME280;62294;48.554;10.202;2023-03-23T11:05:52;94632.06;;;14.99;100.00
73941;BME280;62294;48.554;10.202;2023-03-23T11:08:23;94634.06;;;15.17;100.00
73941;BME280;62294;48.554;10.202;2023-03-23T11:10:56;94637.69;;;15.60;100.00
73941;BME280;62294;48.554;10.202;2023-03-23T11:13:29;94674.84;;;15.67;100.00
73941;BME280;62294;48.554;10.202;2023-03-23T11:15:55;94689.59;;;15.35;100.00
73941;BME280;62294;48.554;10.202;2023-03-23T11:18:40;94682.50;;;16.02;100.00
73941;BME280;62294;48.554;10.202;2023-03-23T11:21:11;94729.19;;;15.33;100.00
73941;BME280;62294;48.554;10.202;2023-03-23T11:23:40;94745.00;;;15.69;100.00
73941;BME280;62294;48.554;10.202;2023-03-23T11:28:53;94781.88;;;16.58;100.00
73941;BME280;62294;48.554;10.202;2023-03-23T11:31:22;94795.78;;;16.83;100.00
73941;BME280;62294;48.554;10.202;2023-03-23T11:33:58;94847.69;;;16.45;100.00
73941;BME280;62294;48.554;10.202;2023-03-23T11:36:37;94863.03;;;16.68;100.00
73941;BME280;62294;48.554;10.202;2023-03-23T11:39:33;94884.63;;;16.58;100.00
73941;BME280;62294;48.554;10.202;2023-03-23T11:42:11;94938.72;;;16.89;100.00
73941;BME280;62294;48.554;10.202;2023-03-23T11:44:41;94979.00;;;16.60;100.00
73941;BME280;62294;48.554;10.202;2023-03-23T11:47:17;95010.66;;;16.63;100.00
73941;BME280;62294;48.554;10.202;2023-03-23T11:50:20;94997.03;;;15.72;100.00
73941;BME280;62294;48.554;10.202;2023-03-23T11:53:15;94931.44;;;15.70;100.00
73941;BME280;62294;48.554;10.202;2023-03-23T11:58:13;94914.84;;;15.04;100.00
73941;BME280;62294;48.554;10.202;2023-03-23T12:00:54;94881.22;;;14.87;100.00
73941;BME280;62294;48.554;10.202;2023-03-23T12:06:06;94862.72;;;14.96;100.00
73941;BME280;62294;48.554;10.202;2023-03-23T12:09:01;94871.28;;;14.98;100.00
73941;BME280;62294;48.554;10.202;2023-03-23T12:11:45;94865.34;;;15.06;100.00
73941;BME280;62294;48.554;10.202;2023-03-23T12:14:25;94885.50;;;15.47;100.00
73941;BME280;62294;48.554;10.202;2023-03-23T12:17:40;94898.81;;;15.57;100.00
73941;BME280;62294;48.554;10.202;2023-03-23T12:20:17;94893.91;;;16.37;100.00
73941;BME280;62294;48.554;10.202;2023-03-23T12:25:33;94997.78;;;16.26;100.00
73941;BME280;62294;48.554;10.202;2023-03-23T12:28:11;94992.84;;;16.72;100.00
73941;BME280;62294;48.554;10.202;2023-03-23T12:30:52;95029.00;;;17.09;100.00
73941;BME280;62294;48.554;10.202;2023-03-23T12:36:03;95010.16;;;16.17;100.00
73941;BME280;62294;48.554;10.202;2023-03-23T12:38:54;94977.22;;;15.68;100.00
73941;BME280;62294;48.554;10.202;2023-03-23T12:41:31;94969.91;;;15.84;100.00
73941;BME280;62294;48.554;10.202;2023-03-23T12:44:06;94967.19;;;16.61;100.00
73941;BME280;62294;48.554;10.202;2023-03-23T12:47:03;94960.13;;;15.64;100.00
73941;BME280;62294;48.554;10.202;2023-03-23T12:49:43;94931.00;;;15.42;100.00
73941;BME280;62294;48.554;10.202;2023-03-23T12:52:23;94942.00;;;15.46;100.00
73941;BME280;62294;48.554;10.202;2023-03-23T12:54:58;94954.25;;;15.62;100.00
73941;BME280;62294;48.554;10.202;2023-03-23T12:57:31;94950.84;;;15.41;100.00
73941;BME280;62294;48.554;10.202;2023-03-23T13:00:20;94931.09;;;15.22;100.00
73941;BME280;62294;48.554;10.202;2023-03-23T13:03:01;94930.22;;;15.47;100.00
73941;BME280;62294;48.554;10.202;2023-03-23T13:05:39;94955.78;;;15.68;100.00
73941;BME280;62294;48.554;10.202;2023-03-23T13:08:12;94920.06;;;15.39;100.00
73941;BME280;62294;48.554;10.202;2023-03-23T13:10:46;94925.13;;;15.45;100.00
73941;BME280;62294;48.554;10.202;2023-03-23T13:13:17;94940.16;;;15.31;100.00
73941;BME280;62294;48.554;10.202;2023-03-23T13:16:32;94939.66;;;15.24;100.00
73941;BME280;62294;48.554;10.202;2023-03-23T13:21:41;94907.63;;;15.09;100.00
73941;BME280;62294;48.554;10.202;2023-03-23T13:24:12;94921.47;;;15.26;100.00
73941;BME280;62294;48.554;10.202;2023-03-23T13:26:40;94924.69;;;15.18;100.00
73941;BME280;62294;48.554;10.202;2023-03-23T13:29:21;94920.66;;;15.26;100.00
73941;BME280;62294;48.554;10.202;2023-03-23T13:31:50;94904.31;;;15.27;100.00
73941;BME280;62294;48.554;10.202;2023-03-23T13:37:05;94878.13;;;15.19;100.00
73941;BME280;62294;48.554;10.202;2023-03-23T13:39:55;94860.34;;;15.38;100.00
73941;BME280;62294;48.554;10.202;2023-03-23T13:42:28;94880.13;;;15.47;100.00
73941;BME280;62294;48.554;10.202;2023-03-23T13:47:44;94913.03;;;15.58;100.00
73941;BME280;62294;48.554;10.202;2023-03-23T13:50:25;94920.34;;;15.37;100.00
73941;BME280;62294;48.554;10.202;2023-03-23T13:52:54;94921.28;;;15.61;100.00
73941;BME280;62294;48.554;10.202;2023-03-23T14:00:47;94946.91;;;16.16;100.00
73941;BME280;62294;48.554;10.202;2023-03-23T14:11:00;94933.31;;;16.08;100.00
73941;BME280;62294;48.554;10.202;2023-03-23T14:16:03;94915.38;;;15.70;100.00
73941;BME280;62294;48.554;10.202;2023-03-23T14:18:38;94907.41;;;15.54;100.00
73941;BME280;62294;48.554;10.202;2023-03-23T14:21:05;94877.75;;;15.36;100.00